sensor_id;sensor_type;location;lat;lon;timestamp;temperature;humidity
52181;DHT22;38158;53.338;6.514;2022-08-07T00:01:33;13.60;99.90
52181;DHT22;38158;53.338;6.514;2022-08-07T00:04:03;13.60;99.90
52181;DHT22;38158;53.338;6.514;2022-08-07T00:06:28;13.60;99.90
52181;DHT22;38158;53.338;6.514;2022-08-07T00:08:54;13.50;99.90
52181;DHT22;38158;53.338;6.514;2022-08-07T00:11:20;13.60;99.90
52181;DHT22;38158;53.338;6.514;2022-08-07T00:13:45;13.50;99.90
52181;DHT22;38158;53.338;6.514;2022-08-07T00:16:13;13.50;99.90
52181;DHT22;38158;53.338;6.514;2022-08-07T00:18:39;13.50;99.90
52181;DHT22;38158;53.338;6.514;2022-08-07T00:21:06;13.40;99.90
52181;DHT22;38158;53.338;6.514;2022-08-07T00:23:33;13.40;99.90
52181;DHT22;38158;53.338;6.514;2022-08-07T00:26:02;13.40;99.90
52181;DHT22;38158;53.338;6.514;2022-08-07T00:28:29;13.30;99.90
52181;DHT22;38158;53.338;6.514;2022-08-07T00:30:55;13.30;99.90
52181;DHT22;38158;53.338;6.514;2022-08-07T00:33:21;13.30;99.90
52181;DHT22;38158;53.338;6.514;2022-08-07T00:35:51;13.30;99.90
52181;DHT22;38158;53.338;6.514;2022-08-07T00:38:17;13.30;99.90
52181;DHT22;38158;53.338;6.514;2022-08-07T00:40:43;13.30;99.90
52181;DHT22;38158;53.338;6.514;2022-08-07T00:43:10;13.20;99.90
52181;DHT22;38158;53.338;6.514;2022-08-07T00:45:40;13.20;99.90
52181;DHT22;38158;53.338;6.514;2022-08-07T00:48:07;13.20;99.90
52181;DHT22;38158;53.338;6.514;2022-08-07T00:50:33;13.20;99.90
52181;DHT22;38158;53.338;6.514;2022-08-07T00:52:59;13.20;99.90
52181;DHT22;38158;53.338;6.514;2022-08-07T00:55:25;13.20;99.90
52181;DHT22;38158;53.338;6.514;2022-08-07T00:57:50;13.20;99.90
52181;DHT22;38158;53.338;6.514;2022-08-07T01:00:17;13.10;99.90
52181;DHT22;38158;53.338;6.514;2022-08-07T01:02:44;13.10;99.90
52181;DHT22;38158;53.338;6.514;2022-08-07T01:05:11;13.20;99.90
52181;DHT22;38158;53.338;6.514;2022-08-07T01:07:38;13.20;99.90
52181;DHT22;38158;53.338;6.514;2022-08-07T01:10:04;13.10;99.90
52181;DHT22;38158;53.338;6.514;2022-08-07T01:12:30;13.10;99.90
52181;DHT22;38158;53.338;6.514;2022-08-07T01:14:56;13.10;99.90
52181;DHT22;38158;53.338;6.514;2022-08-07T01:17:24;13.10;99.90
52181;DHT22;38158;53.338;6.514;2022-08-07T01:19:52;13.10;99.90
52181;DHT22;38158;53.338;6.514;2022-08-07T01:22:19;13.00;99.90
52181;DHT22;38158;53.338;6.514;2022-08-07T01:24:46;13.10;99.90
52181;DHT22;38158;53.338;6.514;2022-08-07T01:27:12;13.00;99.90
52181;DHT22;38158;53.338;6.514;2022-08-07T01:29:38;13.10;99.90
52181;DHT22;38158;53.338;6.514;2022-08-07T01:32:04;13.00;99.90
52181;DHT22;38158;53.338;6.514;2022-08-07T01:34:31;13.00;99.90
52181;DHT22;38158;53.338;6.514;2022-08-07T01:36:57;12.90;99.90
52181;DHT22;38158;53.338;6.514;2022-08-07T01:39:24;12.90;99.90
52181;DHT22;38158;53.338;6.514;2022-08-07T01:41:50;12.80;99.90
52181;DHT22;38158;53.338;6.514;2022-08-07T01:44:16;12.70;99.90
52181;DHT22;38158;53.338;6.514;2022-08-07T01:46:42;12.70;99.90
52181;DHT22;38158;53.338;6.514;2022-08-07T01:49:10;12.70;99.90
52181;DHT22;38158;53.338;6.514;2022-08-07T01:51:36;12.60;99.90
52181;DHT22;38158;53.338;6.514;2022-08-07T01:54:07;12.60;99.90
52181;DHT22;38158;53.338;6.514;2022-08-07T01:56:47;12.60;99.90
52181;DHT22;38158;53.338;6.514;2022-08-07T01:59:18;12.60;99.90
52181;DHT22;38158;53.338;6.514;2022-08-07T02:02:02;12.60;99.90
52181;DHT22;38158;53.338;6.514;2022-08-07T02:04:50;12.50;99.90
52181;DHT22;38158;53.338;6.514;2022-08-07T02:07:19;12.50;99.90
52181;DHT22;38158;53.338;6.514;2022-08-07T02:09:48;12.50;99.90
52181;DHT22;38158;53.338;6.514;2022-08-07T02:12:16;12.50;99.90
52181;DHT22;38158;53.338;6.514;2022-08-07T02:14:52;12.50;99.90
52181;DHT22;38158;53.338;6.514;2022-08-07T02:17:19;12.40;99.90
52181;DHT22;38158;53.338;6.514;2022-08-07T02:19:48;12.40;99.90
52181;DHT22;38158;53.338;6.514;2022-08-07T02:22:15;12.40;99.90
52181;DHT22;38158;53.338;6.514;2022-08-07T02:24:46;12.40;99.90
52181;DHT22;38158;53.338;6.514;2022-08-07T02:27:14;12.40;99.90
52181;DHT22;38158;53.338;6.514;2022-08-07T02:29:40;12.40;99.90
52181;DHT22;38158;53.338;6.514;2022-08-07T02:32:08;12.30;99.90
52181;DHT22;38158;53.338;6.514;2022-08-07T02:34:36;12.30;99.90
52181;DHT22;38158;53.338;6.514;2022-08-07T02:37:03;12.30;99.90
52181;DHT22;38158;53.338;6.514;2022-08-07T02:39:31;12.30;99.90
52181;DHT22;38158;53.338;6.514;2022-08-07T02:41:59;12.30;99.90
52181;DHT22;38158;53.338;6.514;2022-08-07T02:44:26;12.30;99.90
52181;DHT22;38158;53.338;6.514;2022-08-07T02:46:55;12.30;99.90
52181;DHT22;38158;53.338;6.514;2022-08-07T02:49:23;12.30;99.90
52181;DHT22;38158;53.338;6.514;2022-08-07T02:51:49;12.20;99.90
52181;DHT22;38158;53.338;6.514;2022-08-07T02:54:16;12.20;99.90
52181;DHT22;38158;53.338;6.514;2022-08-07T02:56:43;12.10;99.90
52181;DHT22;38158;53.338;6.514;2022-08-07T02:59:16;12.10;99.90
52181;DHT22;38158;53.338;6.514;2022-08-07T03:01:43;12.00;99.90
52181;DHT22;38158;53.338;6.514;2022-08-07T03:04:11;12.00;99.90
52181;DHT22;38158;53.338;6.514;2022-08-07T03:06:38;11.90;99.90
52181;DHT22;38158;53.338;6.514;2022-08-07T03:09:05;12.00;99.90
52181;DHT22;38158;53.338;6.514;2022-08-07T03:11:33;12.00;99.90
52181;DHT22;38158;53.338;6.514;2022-08-07T03:14:02;12.00;99.90
52181;DHT22;38158;53.338;6.514;2022-08-07T03:16:29;12.10;99.90
52181;DHT22;38158;53.338;6.514;2022-08-07T03:18:55;12.00;99.90
52181;DHT22;38158;53.338;6.514;2022-08-07T03:21:22;12.10;99.90
52181;DHT22;38158;53.338;6.514;2022-08-07T03:23:50;12.00;99.90
52181;DHT22;38158;53.338;6.514;2022-08-07T03:26:19;12.00;99.90
52181;DHT22;38158;53.338;6.514;2022-08-07T03:28:45;11.90;99.90
52181;DHT22;38158;53.338;6.514;2022-08-07T03:31:12;11.80;99.90
52181;DHT22;38158;53.338;6.514;2022-08-07T03:33:50;11.80;99.90
52181;DHT22;38158;53.338;6.514;2022-08-07T03:36:19;11.80;99.90
52181;DHT22;38158;53.338;6.514;2022-08-07T03:38:48;11.80;99.90
52181;DHT22;38158;53.338;6.514;2022-08-07T03:41:15;11.80;99.90
52181;DHT22;38158;53.338;6.514;2022-08-07T03:43:41;11.70;99.90
52181;DHT22;38158;53.338;6.514;2022-08-07T03:46:07;11.70;99.90
52181;DHT22;38158;53.338;6.514;2022-08-07T03:48:34;11.70;99.90
52181;DHT22;38158;53.338;6.514;2022-08-07T03:51:02;11.70;99.90
52181;DHT22;38158;53.338;6.514;2022-08-07T03:53:28;11.80;99.90
52181;DHT22;38158;53.338;6.514;2022-08-07T03:55:54;11.80;99.90
52181;DHT22;38158;53.338;6.514;2022-08-07T03:58:22;11.90;99.90
52181;DHT22;38158;53.338;6.514;2022-08-07T04:00:48;11.90;99.90
52181;DHT22;38158;53.338;6.514;2022-08-07T04:03:16;11.90;99.90
52181;DHT22;38158;53.338;6.514;2022-08-07T04:05:42;11.90;99.90
52181;DHT22;38158;53.338;6.514;2022-08-07T04:08:12;11.90;99.90
52181;DHT22;38158;53.338;6.514;2022-08-07T04:10:39;11.80;99.90
52181;DHT22;38158;53.338;6.514;2022-08-07T04:13:06;11.30;99.90
52181;DHT22;38158;53.338;6.514;2022-08-07T04:15:33;11.70;99.90
52181;DHT22;38158;53.338;6.514;2022-08-07T04:18:00;11.70;99.90
52181;DHT22;38158;53.338;6.514;2022-08-07T04:20:26;11.70;99.90
52181;DHT22;38158;53.338;6.514;2022-08-07T04:22:52;11.80;99.90
52181;DHT22;38158;53.338;6.514;2022-08-07T04:25:21;11.80;99.90
52181;DHT22;38158;53.338;6.514;2022-08-07T04:27:47;11.80;99.90
52181;DHT22;38158;53.338;6.514;2022-08-07T04:30:13;11.80;99.90
52181;DHT22;38158;53.338;6.514;2022-08-07T04:32:39;11.80;99.90
52181;DHT22;38158;53.338;6.514;2022-08-07T04:35:05;11.80;99.90
52181;DHT22;38158;53.338;6.514;2022-08-07T04:37:32;11.90;99.90
52181;DHT22;38158;53.338;6.514;2022-08-07T04:39:58;11.90;99.90
52181;DHT22;38158;53.338;6.514;2022-08-07T04:42:24;11.90;99.90
52181;DHT22;38158;53.338;6.514;2022-08-07T04:44:57;12.00;99.90
52181;DHT22;38158;53.338;6.514;2022-08-07T04:50:08;12.10;99.90
52181;DHT22;38158;53.338;6.514;2022-08-07T04:52:42;12.20;99.90
52181;DHT22;38158;53.338;6.514;2022-08-07T04:55:22;12.20;99.90
52181;DHT22;38158;53.338;6.514;2022-08-07T04:58:55;12.20;99.90
52181;DHT22;38158;53.338;6.514;2022-08-07T05:00:57;12.30;99.90
52181;DHT22;38158;53.338;6.514;2022-08-07T05:06:14;12.20;99.90
52181;DHT22;38158;53.338;6.514;2022-08-07T05:09:02;12.30;99.90
52181;DHT22;38158;53.338;6.514;2022-08-07T05:11:34;12.30;99.90
52181;DHT22;38158;53.338;6.514;2022-08-07T05:14:13;12.30;99.90
52181;DHT22;38158;53.338;6.514;2022-08-07T05:16:41;12.30;99.90
52181;DHT22;38158;53.338;6.514;2022-08-07T05:19:15;12.40;99.90
52181;DHT22;38158;53.338;6.514;2022-08-07T05:21:46;12.40;99.90
52181;DHT22;38158;53.338;6.514;2022-08-07T05:24:15;12.40;99.90
52181;DHT22;38158;53.338;6.514;2022-08-07T05:26:46;12.50;99.90
52181;DHT22;38158;53.338;6.514;2022-08-07T05:29:14;12.60;99.90
52181;DHT22;38158;53.338;6.514;2022-08-07T05:31:43;12.60;99.90
52181;DHT22;38158;53.338;6.514;2022-08-07T05:34:13;12.70;99.90
52181;DHT22;38158;53.338;6.514;2022-08-07T05:36:42;12.70;99.90
52181;DHT22;38158;53.338;6.514;2022-08-07T05:39:09;12.80;99.90
52181;DHT22;38158;53.338;6.514;2022-08-07T05:41:37;12.80;99.90
52181;DHT22;38158;53.338;6.514;2022-08-07T05:44:03;12.90;99.90
52181;DHT22;38158;53.338;6.514;2022-08-07T05:46:30;13.00;99.90
52181;DHT22;38158;53.338;6.514;2022-08-07T05:48:55;13.10;99.90
52181;DHT22;38158;53.338;6.514;2022-08-07T05:51:23;13.20;99.90
52181;DHT22;38158;53.338;6.514;2022-08-07T05:53:49;13.30;99.90
52181;DHT22;38158;53.338;6.514;2022-08-07T05:56:17;13.40;99.90
52181;DHT22;38158;53.338;6.514;2022-08-07T05:58:43;13.40;99.90
52181;DHT22;38158;53.338;6.514;2022-08-07T06:01:12;13.50;99.90
52181;DHT22;38158;53.338;6.514;2022-08-07T06:03:42;13.50;99.90
52181;DHT22;38158;53.338;6.514;2022-08-07T06:06:10;13.60;99.90
52181;DHT22;38158;53.338;6.514;2022-08-07T06:08:39;13.60;99.90
52181;DHT22;38158;53.338;6.514;2022-08-07T06:11:06;13.70;99.90
52181;DHT22;38158;53.338;6.514;2022-08-07T06:13:32;13.80;99.90
52181;DHT22;38158;53.338;6.514;2022-08-07T06:15:58;13.80;99.90
52181;DHT22;38158;53.338;6.514;2022-08-07T06:18:26;13.90;99.90
52181;DHT22;38158;53.338;6.514;2022-08-07T06:20:52;14.00;99.90
52181;DHT22;38158;53.338;6.514;2022-08-07T06:23:18;14.10;99.90
52181;DHT22;38158;53.338;6.514;2022-08-07T06:25:44;14.20;99.90
52181;DHT22;38158;53.338;6.514;2022-08-07T06:28:10;14.20;99.90
52181;DHT22;38158;53.338;6.514;2022-08-07T06:30:37;14.30;99.90
52181;DHT22;38158;53.338;6.514;2022-08-07T06:33:03;14.40;99.90
52181;DHT22;38158;53.338;6.514;2022-08-07T06:35:30;14.50;99.90
52181;DHT22;38158;53.338;6.514;2022-08-07T06:37:55;14.60;99.90
52181;DHT22;38158;53.338;6.514;2022-08-07T06:40:23;14.70;99.90
52181;DHT22;38158;53.338;6.514;2022-08-07T06:42:49;14.70;99.90
52181;DHT22;38158;53.338;6.514;2022-08-07T06:45:16;14.90;99.90
52181;DHT22;38158;53.338;6.514;2022-08-07T06:47:43;15.00;99.90
52181;DHT22;38158;53.338;6.514;2022-08-07T06:50:10;15.00;99.90
52181;DHT22;38158;53.338;6.514;2022-08-07T06:52:37;15.10;99.90
52181;DHT22;38158;53.338;6.514;2022-08-07T06:55:12;15.30;99.90
52181;DHT22;38158;53.338;6.514;2022-08-07T06:57:38;15.40;99.90
52181;DHT22;38158;53.338;6.514;2022-08-07T07:00:04;15.40;99.90
52181;DHT22;38158;53.338;6.514;2022-08-07T07:02:31;15.50;99.90
52181;DHT22;38158;53.338;6.514;2022-08-07T07:04:58;15.70;99.90
52181;DHT22;38158;53.338;6.514;2022-08-07T07:07:23;15.80;99.90
52181;DHT22;38158;53.338;6.514;2022-08-07T07:09:49;15.90;99.90
52181;DHT22;38158;53.338;6.514;2022-08-07T07:15:23;16.20;99.90
52181;DHT22;38158;53.338;6.514;2022-08-07T07:17:57;16.30;99.90
52181;DHT22;38158;53.338;6.514;2022-08-07T07:22:59;16.50;99.90
52181;DHT22;38158;53.338;6.514;2022-08-07T07:25:26;16.60;99.90
52181;DHT22;38158;53.338;6.514;2022-08-07T07:30:57;16.80;99.90
52181;DHT22;38158;53.338;6.514;2022-08-07T07:33:25;16.90;99.90
52181;DHT22;38158;53.338;6.514;2022-08-07T07:35:52;17.00;99.90
52181;DHT22;38158;53.338;6.514;2022-08-07T07:38:22;17.10;99.90
52181;DHT22;38158;53.338;6.514;2022-08-07T07:40:50;17.10;99.90
52181;DHT22;38158;53.338;6.514;2022-08-07T07:43:17;17.20;99.90
52181;DHT22;38158;53.338;6.514;2022-08-07T07:45:45;17.30;99.90
52181;DHT22;38158;53.338;6.514;2022-08-07T07:48:15;17.30;99.90
52181;DHT22;38158;53.338;6.514;2022-08-07T07:50:42;17.40;99.90
52181;DHT22;38158;53.338;6.514;2022-08-07T07:53:10;17.50;99.90
52181;DHT22;38158;53.338;6.514;2022-08-07T07:55:37;17.60;99.90
52181;DHT22;38158;53.338;6.514;2022-08-07T07:58:04;17.60;99.90
52181;DHT22;38158;53.338;6.514;2022-08-07T08:00:31;17.70;99.90
52181;DHT22;38158;53.338;6.514;2022-08-07T08:03:07;17.80;99.90
52181;DHT22;38158;53.338;6.514;2022-08-07T08:05:40;17.90;98.70
52181;DHT22;38158;53.338;6.514;2022-08-07T08:08:07;18.00;98.60
52181;DHT22;38158;53.338;6.514;2022-08-07T08:10:34;18.00;98.80
52181;DHT22;38158;53.338;6.514;2022-08-07T08:13:00;18.00;98.30
52181;DHT22;38158;53.338;6.514;2022-08-07T08:15:30;18.00;98.50
52181;DHT22;38158;53.338;6.514;2022-08-07T08:17:58;18.10;98.50
52181;DHT22;38158;53.338;6.514;2022-08-07T08:20:26;18.20;98.40
52181;DHT22;38158;53.338;6.514;2022-08-07T08:22:55;18.30;97.90
52181;DHT22;38158;53.338;6.514;2022-08-07T08:25:41;18.40;97.60
52181;DHT22;38158;53.338;6.514;2022-08-07T08:28:27;18.50;97.00
52181;DHT22;38158;53.338;6.514;2022-08-07T08:30:58;18.60;97.50
52181;DHT22;38158;53.338;6.514;2022-08-07T08:33:28;18.80;96.60
52181;DHT22;38158;53.338;6.514;2022-08-07T08:35:56;19.00;96.30
52181;DHT22;38158;53.338;6.514;2022-08-07T08:38:26;19.00;96.10
52181;DHT22;38158;53.338;6.514;2022-08-07T08:41:07;19.10;94.90
52181;DHT22;38158;53.338;6.514;2022-08-07T08:44:03;19.10;94.30
52181;DHT22;38158;53.338;6.514;2022-08-07T08:46:54;19.10;93.80
52181;DHT22;38158;53.338;6.514;2022-08-07T08:54:34;19.50;94.60
52181;DHT22;38158;53.338;6.514;2022-08-07T08:57:07;19.60;93.40
52181;DHT22;38158;53.338;6.514;2022-08-07T08:59:51;19.80;94.20
52181;DHT22;38158;53.338;6.514;2022-08-07T09:10:45;20.40;90.80
52181;DHT22;38158;53.338;6.514;2022-08-07T09:27:22;20.40;89.60
52181;DHT22;38158;53.338;6.514;2022-08-07T09:32:39;20.20;90.30
52181;DHT22;38158;53.338;6.514;2022-08-07T09:38:12;20.00;90.00
52181;DHT22;38158;53.338;6.514;2022-08-07T09:44:07;20.10;90.10
52181;DHT22;38158;53.338;6.514;2022-08-07T09:47:04;20.40;90.40
52181;DHT22;38158;53.338;6.514;2022-08-07T09:52:50;21.00;88.50
52181;DHT22;38158;53.338;6.514;2022-08-07T09:58:07;21.30;85.90
52181;DHT22;38158;53.338;6.514;2022-08-07T10:01:16;21.30;81.00
52181;DHT22;38158;53.338;6.514;2022-08-07T10:12:40;20.80;83.30
52181;DHT22;38158;53.338;6.514;2022-08-07T10:18:22;20.80;84.10
52181;DHT22;38158;53.338;6.514;2022-08-07T10:21:08;21.00;80.20
52181;DHT22;38158;53.338;6.514;2022-08-07T10:35:04;20.60;81.30
52181;DHT22;38158;53.338;6.514;2022-08-07T10:37:58;20.40;81.10
52181;DHT22;38158;53.338;6.514;2022-08-07T10:40:46;20.40;83.70
52181;DHT22;38158;53.338;6.514;2022-08-07T10:43:20;20.60;80.70
52181;DHT22;38158;53.338;6.514;2022-08-07T10:45:53;20.90;82.00
52181;DHT22;38158;53.338;6.514;2022-08-07T10:51:09;21.20;79.30
52181;DHT22;38158;53.338;6.514;2022-08-07T10:53:55;21.20;79.70
52181;DHT22;38158;53.338;6.514;2022-08-07T10:56:39;21.30;80.00
52181;DHT22;38158;53.338;6.514;2022-08-07T10:59:34;21.30;79.50
52181;DHT22;38158;53.338;6.514;2022-08-07T11:05:08;21.30;81.60
52181;DHT22;38158;53.338;6.514;2022-08-07T11:10:18;21.70;80.10
52181;DHT22;38158;53.338;6.514;2022-08-07T11:15:38;21.60;77.50
52181;DHT22;38158;53.338;6.514;2022-08-07T11:18:17;21.50;78.30
52181;DHT22;38158;53.338;6.514;2022-08-07T11:32:22;20.90;78.60
52181;DHT22;38158;53.338;6.514;2022-08-07T11:34:56;21.00;79.10
52181;DHT22;38158;53.338;6.514;2022-08-07T11:40:13;20.90;79.10
52181;DHT22;38158;53.338;6.514;2022-08-07T11:51:08;21.30;79.30
52181;DHT22;38158;53.338;6.514;2022-08-07T11:54:02;21.40;79.80
52181;DHT22;38158;53.338;6.514;2022-08-07T11:56:55;21.40;78.80
52181;DHT22;38158;53.338;6.514;2022-08-07T11:59:27;21.30;77.90
52181;DHT22;38158;53.338;6.514;2022-08-07T12:07:26;20.90;84.40
52181;DHT22;38158;53.338;6.514;2022-08-07T12:09:57;20.70;86.20
52181;DHT22;38158;53.338;6.514;2022-08-07T12:15:04;20.30;90.00
52181;DHT22;38158;53.338;6.514;2022-08-07T12:17:39;20.20;89.70
52181;DHT22;38158;53.338;6.514;2022-08-07T12:22:55;20.10;89.20
52181;DHT22;38158;53.338;6.514;2022-08-07T12:25:30;20.20;89.00
52181;DHT22;38158;53.338;6.514;2022-08-07T12:28:22;20.30;87.50
52181;DHT22;38158;53.338;6.514;2022-08-07T12:30:52;20.40;87.20
52181;DHT22;38158;53.338;6.514;2022-08-07T12:33:22;20.40;87.10
52181;DHT22;38158;53.338;6.514;2022-08-07T12:35:49;20.50;86.90
52181;DHT22;38158;53.338;6.514;2022-08-07T12:38:16;20.60;86.90
52181;DHT22;38158;53.338;6.514;2022-08-07T12:40:46;20.70;86.80
52181;DHT22;38158;53.338;6.514;2022-08-07T12:43:15;20.70;86.70
52181;DHT22;38158;53.338;6.514;2022-08-07T12:51:40;20.90;84.00
52181;DHT22;38158;53.338;6.514;2022-08-07T12:54:16;20.90;84.30
52181;DHT22;38158;53.338;6.514;2022-08-07T12:56:48;21.00;83.50
52181;DHT22;38158;53.338;6.514;2022-08-07T12:59:22;21.00;82.50
52181;DHT22;38158;53.338;6.514;2022-08-07T13:04:49;21.40;80.70
52181;DHT22;38158;53.338;6.514;2022-08-07T13:19:20;22.10;73.70
52181;DHT22;38158;53.338;6.514;2022-08-07T13:24:29;21.70;74.80
52181;DHT22;38158;53.338;6.514;2022-08-07T13:27:35;21.70;75.20
52181;DHT22;38158;53.338;6.514;2022-08-07T13:30:04;21.70;74.20
52181;DHT22;38158;53.338;6.514;2022-08-07T13:33:00;21.70;73.80
52181;DHT22;38158;53.338;6.514;2022-08-07T13:35:36;21.70;70.00
52181;DHT22;38158;53.338;6.514;2022-08-07T13:38:20;21.60;69.60
52181;DHT22;38158;53.338;6.514;2022-08-07T13:43:41;21.60;68.30
52181;DHT22;38158;53.338;6.514;2022-08-07T13:46:07;21.70;70.20
52181;DHT22;38158;53.338;6.514;2022-08-07T13:48:37;21.70;72.60
52181;DHT22;38158;53.338;6.514;2022-08-07T13:51:05;21.70;75.00
52181;DHT22;38158;53.338;6.514;2022-08-07T13:53:34;21.80;74.60
52181;DHT22;38158;53.338;6.514;2022-08-07T13:56:04;21.80;72.90
52181;DHT22;38158;53.338;6.514;2022-08-07T13:58:36;21.70;72.20
52181;DHT22;38158;53.338;6.514;2022-08-07T14:01:21;21.50;72.30
52181;DHT22;38158;53.338;6.514;2022-08-07T14:03:48;21.50;74.10
52181;DHT22;38158;53.338;6.514;2022-08-07T14:06:15;21.40;75.70
52181;DHT22;38158;53.338;6.514;2022-08-07T14:08:49;21.50;76.20
52181;DHT22;38158;53.338;6.514;2022-08-07T14:11:17;21.50;73.60
52181;DHT22;38158;53.338;6.514;2022-08-07T14:13:50;21.40;73.80
52181;DHT22;38158;53.338;6.514;2022-08-07T14:16:25;21.30;73.80
52181;DHT22;38158;53.338;6.514;2022-08-07T14:18:55;21.30;74.30
52181;DHT22;38158;53.338;6.514;2022-08-07T14:21:26;21.30;72.80
52181;DHT22;38158;53.338;6.514;2022-08-07T14:23:57;21.30;73.60
52181;DHT22;38158;53.338;6.514;2022-08-07T14:26:31;21.20;74.70
52181;DHT22;38158;53.338;6.514;2022-08-07T14:29:02;21.30;75.80
52181;DHT22;38158;53.338;6.514;2022-08-07T14:31:32;21.50;75.50
52181;DHT22;38158;53.338;6.514;2022-08-07T14:34:00;21.70;74.00
52181;DHT22;38158;53.338;6.514;2022-08-07T14:36:27;21.90;73.80
52181;DHT22;38158;53.338;6.514;2022-08-07T14:39:00;22.10;72.40
52181;DHT22;38158;53.338;6.514;2022-08-07T14:41:28;22.10;69.60
52181;DHT22;38158;53.338;6.514;2022-08-07T14:43:57;22.10;70.50
52181;DHT22;38158;53.338;6.514;2022-08-07T14:46:27;22.00;70.30
52181;DHT22;38158;53.338;6.514;2022-08-07T14:48:54;21.80;70.20
52181;DHT22;38158;53.338;6.514;2022-08-07T14:51:24;21.80;70.30
52181;DHT22;38158;53.338;6.514;2022-08-07T14:53:57;21.70;70.60
52181;DHT22;38158;53.338;6.514;2022-08-07T14:56:25;21.60;70.90
52181;DHT22;38158;53.338;6.514;2022-08-07T14:58:54;21.40;71.90
52181;DHT22;38158;53.338;6.514;2022-08-07T15:01:26;21.30;72.80
52181;DHT22;38158;53.338;6.514;2022-08-07T15:03:53;21.20;74.50
52181;DHT22;38158;53.338;6.514;2022-08-07T15:06:30;21.20;75.30
52181;DHT22;38158;53.338;6.514;2022-08-07T15:09:04;21.20;74.90
52181;DHT22;38158;53.338;6.514;2022-08-07T15:11:38;21.20;75.00
52181;DHT22;38158;53.338;6.514;2022-08-07T15:14:08;21.20;74.70
52181;DHT22;38158;53.338;6.514;2022-08-07T15:16:48;21.40;74.90
52181;DHT22;38158;53.338;6.514;2022-08-07T15:19:18;21.40;73.70
52181;DHT22;38158;53.338;6.514;2022-08-07T15:21:48;21.30;73.90
52181;DHT22;38158;53.338;6.514;2022-08-07T15:24:21;21.20;75.00
52181;DHT22;38158;53.338;6.514;2022-08-07T15:29:23;21.10;76.30
52181;DHT22;38158;53.338;6.514;2022-08-07T15:32:00;21.20;77.20
52181;DHT22;38158;53.338;6.514;2022-08-07T15:34:50;21.20;77.00
52181;DHT22;38158;53.338;6.514;2022-08-07T15:37:19;21.20;77.80
52181;DHT22;38158;53.338;6.514;2022-08-07T15:39:48;21.20;78.30
52181;DHT22;38158;53.338;6.514;2022-08-07T15:45:34;21.10;81.90
52181;DHT22;38158;53.338;6.514;2022-08-07T15:48:06;21.00;81.30
52181;DHT22;38158;53.338;6.514;2022-08-07T15:50:38;20.90;82.70
52181;DHT22;38158;53.338;6.514;2022-08-07T15:53:27;20.90;84.20
52181;DHT22;38158;53.338;6.514;2022-08-07T15:55:59;21.00;85.30
52181;DHT22;38158;53.338;6.514;2022-08-07T16:01:38;21.30;85.10
52181;DHT22;38158;53.338;6.514;2022-08-07T16:04:10;21.10;86.80
52181;DHT22;38158;53.338;6.514;2022-08-07T16:06:41;21.10;87.00
52181;DHT22;38158;53.338;6.514;2022-08-07T16:09:12;21.00;88.80
52181;DHT22;38158;53.338;6.514;2022-08-07T16:14:16;20.80;91.00
52181;DHT22;38158;53.338;6.514;2022-08-07T16:16:57;20.70;91.10
52181;DHT22;38158;53.338;6.514;2022-08-07T16:22:05;20.40;92.80
52181;DHT22;38158;53.338;6.514;2022-08-07T16:24:46;20.30;92.70
52181;DHT22;38158;53.338;6.514;2022-08-07T16:27:17;20.40;93.20
52181;DHT22;38158;53.338;6.514;2022-08-07T16:32:44;20.50;93.20
52181;DHT22;38158;53.338;6.514;2022-08-07T16:35:23;20.60;94.10
52181;DHT22;38158;53.338;6.514;2022-08-07T16:54:07;20.50;94.20
52181;DHT22;38158;53.338;6.514;2022-08-07T16:59:47;20.20;94.20
52181;DHT22;38158;53.338;6.514;2022-08-07T17:02:34;20.30;95.30
52181;DHT22;38158;53.338;6.514;2022-08-07T17:07:51;20.40;94.30
52181;DHT22;38158;53.338;6.514;2022-08-07T17:10:51;20.40;94.50
52181;DHT22;38158;53.338;6.514;2022-08-07T17:21:01;20.20;93.80
52181;DHT22;38158;53.338;6.514;2022-08-07T17:26:22;20.30;92.80
52181;DHT22;38158;53.338;6.514;2022-08-07T17:34:12;20.00;93.10
52181;DHT22;38158;53.338;6.514;2022-08-07T17:36:48;19.80;94.00
52181;DHT22;38158;53.338;6.514;2022-08-07T17:45:07;19.20;97.00
52181;DHT22;38158;53.338;6.514;2022-08-07T17:58:43;18.90;96.90
52181;DHT22;38158;53.338;6.514;2022-08-07T18:01:19;18.90;97.10
52181;DHT22;38158;53.338;6.514;2022-08-07T18:03:52;18.80;97.10
52181;DHT22;38158;53.338;6.514;2022-08-07T18:06:34;18.70;98.00
52181;DHT22;38158;53.338;6.514;2022-08-07T18:09:02;18.60;98.90
52181;DHT22;38158;53.338;6.514;2022-08-07T18:11:39;18.50;98.80
52181;DHT22;38158;53.338;6.514;2022-08-07T18:14:40;18.40;99.00
52181;DHT22;38158;53.338;6.514;2022-08-07T18:18:02;18.40;99.50
52181;DHT22;38158;53.338;6.514;2022-08-07T18:20:30;18.30;99.90
52181;DHT22;38158;53.338;6.514;2022-08-07T18:23:04;18.20;99.00
52181;DHT22;38158;53.338;6.514;2022-08-07T18:25:32;18.10;99.00
52181;DHT22;38158;53.338;6.514;2022-08-07T18:28:14;18.10;99.00
52181;DHT22;38158;53.338;6.514;2022-08-07T18:31:06;18.10;99.90
52181;DHT22;38158;53.338;6.514;2022-08-07T18:36:20;17.90;99.90
52181;DHT22;38158;53.338;6.514;2022-08-07T18:39:20;17.90;99.90
52181;DHT22;38158;53.338;6.514;2022-08-07T18:45:03;17.80;99.90
52181;DHT22;38158;53.338;6.514;2022-08-07T18:48:07;17.80;99.90
52181;DHT22;38158;53.338;6.514;2022-08-07T18:50:56;17.70;99.90
52181;DHT22;38158;53.338;6.514;2022-08-07T19:01:40;17.40;99.90
52181;DHT22;38158;53.338;6.514;2022-08-07T19:04:13;17.40;99.90
52181;DHT22;38158;53.338;6.514;2022-08-07T19:09:52;17.30;99.90
52181;DHT22;38158;53.338;6.514;2022-08-07T19:15:45;17.30;99.90
52181;DHT22;38158;53.338;6.514;2022-08-07T19:21:14;17.20;99.90
52181;DHT22;38158;53.338;6.514;2022-08-07T19:23:44;17.20;99.90
52181;DHT22;38158;53.338;6.514;2022-08-07T19:26:13;17.20;99.90
52181;DHT22;38158;53.338;6.514;2022-08-07T19:28:50;17.20;99.90
52181;DHT22;38158;53.338;6.514;2022-08-07T19:31:28;17.20;99.90
52181;DHT22;38158;53.338;6.514;2022-08-07T19:33:56;17.10;99.90
52181;DHT22;38158;53.338;6.514;2022-08-07T19:36:24;17.10;99.90
52181;DHT22;38158;53.338;6.514;2022-08-07T19:38:54;17.10;99.90
52181;DHT22;38158;53.338;6.514;2022-08-07T19:41:26;17.10;99.90
52181;DHT22;38158;53.338;6.514;2022-08-07T19:43:55;17.10;99.90
52181;DHT22;38158;53.338;6.514;2022-08-07T19:46:25;17.10;99.90
52181;DHT22;38158;53.338;6.514;2022-08-07T19:49:15;17.00;99.90
52181;DHT22;38158;53.338;6.514;2022-08-07T19:51:42;17.00;99.90
52181;DHT22;38158;53.338;6.514;2022-08-07T19:54:08;16.90;99.90
52181;DHT22;38158;53.338;6.514;2022-08-07T19:56:40;16.90;99.90
52181;DHT22;38158;53.338;6.514;2022-08-07T19:59:37;16.90;99.90
52181;DHT22;38158;53.338;6.514;2022-08-07T20:02:05;16.90;99.90
52181;DHT22;38158;53.338;6.514;2022-08-07T20:04:41;16.80;99.90